sensor_id;sensor_type;location;lat;lon;timestamp;P1;durP1;ratioP1;P2;durP2;ratioP2
1999;SDS011;1001;48.87406500;9.59633600;2023-12-04T00:00:42;1.65;;;1.55;;
1999;SDS011;1001;48.87406500;9.59633600;2023-12-04T00:03:08;0.40;;;0.32;;
1999;SDS011;1001;48.87406500;9.59633600;2023-12-04T00:05:34;1.95;;;1.55;;
1999;SDS011;1001;48.87406500;9.59633600;2023-12-04T00:08:02;2.63;;;2.40;;
1999;SDS011;1001;48.87406500;9.59633600;2023-12-04T00:10:28;1.83;;;1.67;;
1999;SDS011;1001;48.87406500;9.59633600;2023-12-04T00:12:54;1.30;;;0.90;;
1999;SDS011;1001;48.87406500;9.59633600;2023-12-04T00:15:21;0.90;;;0.82;;
1999;SDS011;1001;48.87406500;9.59633600;2023-12-04T00:17:47;1.83;;;1.73;;
1999;SDS011;1001;48.87406500;9.59633600;2023-12-04T00:20:13;4.85;;;2.85;;
1999;SDS011;1001;48.87406500;9.59633600;2023-12-04T00:22:39;1.83;;;1.10;;
1999;SDS011;1001;48.87406500;9.59633600;2023-12-04T00:25:07;2.90;;;2.70;;
1999;SDS011;1001;48.87406500;9.59633600;2023-12-04T00:27:34;1.58;;;1.48;;
1999;SDS011;1001;48.87406500;9.59633600;2023-12-04T00:30:00;3.08;;;2.45;;
1999;SDS011;1001;48.87406500;9.59633600;2023-12-04T00:32:28;1.73;;;0.70;;
1999;SDS011;1001;48.87406500;9.59633600;2023-12-04T00:34:55;1.48;;;1.15;;
1999;SDS011;1001;48.87406500;9.59633600;2023-12-04T00:37:21;1.67;;;1.45;;
1999;SDS011;1001;48.87406500;9.59633600;2023-12-04T00:39:48;1.25;;;1.15;;
1999;SDS011;1001;48.87406500;9.59633600;2023-12-04T00:42:15;2.35;;;2.15;;
1999;SDS011;1001;48.87406500;9.59633600;2023-12-04T00:44:42;1.38;;;1.27;;
1999;SDS011;1001;48.87406500;9.59633600;2023-12-04T00:47:08;1.42;;;1.23;;
1999;SDS011;1001;48.87406500;9.59633600;2023-12-04T00:49:36;2.35;;;1.13;;
1999;SDS011;1001;48.87406500;9.59633600;2023-12-04T00:52:02;1.67;;;1.27;;
1999;SDS011;1001;48.87406500;9.59633600;2023-12-04T00:54:28;1.83;;;1.65;;
1999;SDS011;1001;48.87406500;9.59633600;2023-12-04T00:56:55;1.60;;;1.50;;
1999;SDS011;1001;48.87406500;9.59633600;2023-12-04T00:59:22;1.05;;;0.90;;
1999;SDS011;1001;48.87406500;9.59633600;2023-12-04T01:01:49;3.15;;;2.05;;
1999;SDS011;1001;48.87406500;9.59633600;2023-12-04T01:04:15;3.25;;;2.33;;
1999;SDS011;1001;48.87406500;9.59633600;2023-12-04T01:06:41;1.13;;;1.02;;
1999;SDS011;1001;48.87406500;9.59633600;2023-12-04T01:09:08;1.73;;;1.60;;
1999;SDS011;1001;48.87406500;9.59633600;2023-12-04T01:11:34;3.63;;;1.98;;
1999;SDS011;1001;48.87406500;9.59633600;2023-12-04T01:14:01;1.55;;;1.30;;
1999;SDS011;1001;48.87406500;9.59633600;2023-12-04T01:16:29;3.75;;;2.30;;
1999;SDS011;1001;48.87406500;9.59633600;2023-12-04T01:18:55;2.60;;;1.50;;
1999;SDS011;1001;48.87406500;9.59633600;2023-12-04T01:21:22;1.05;;;0.82;;
1999;SDS011;1001;48.87406500;9.59633600;2023-12-04T01:23:48;0.50;;;0.30;;
1999;SDS011;1001;48.87406500;9.59633600;2023-12-04T01:26:17;0.65;;;0.57;;
1999;SDS011;1001;48.87406500;9.59633600;2023-12-04T01:28:44;1.52;;;0.98;;
1999;SDS011;1001;48.87406500;9.59633600;2023-12-04T01:31:10;1.10;;;0.88;;
1999;SDS011;1001;48.87406500;9.59633600;2023-12-04T01:33:37;0.82;;;0.82;;
1999;SDS011;1001;48.87406500;9.59633600;2023-12-04T01:36:04;2.58;;;0.60;;
1999;SDS011;1001;48.87406500;9.59633600;2023-12-04T01:38:31;3.60;;;1.80;;
1999;SDS011;1001;48.87406500;9.59633600;2023-12-04T01:40:57;1.58;;;1.33;;
1999;SDS011;1001;48.87406500;9.59633600;2023-12-04T01:43:23;0.77;;;0.77;;
1999;SDS011;1001;48.87406500;9.59633600;2023-12-04T01:45:49;0.98;;;0.93;;
1999;SDS011;1001;48.87406500;9.59633600;2023-12-04T01:48:17;0.70;;;0.40;;
1999;SDS011;1001;48.87406500;9.59633600;2023-12-04T01:50:45;4.95;;;2.00;;
1999;SDS011;1001;48.87406500;9.59633600;2023-12-04T01:53:11;0.60;;;0.50;;
1999;SDS011;1001;48.87406500;9.59633600;2023-12-04T01:55:37;0.50;;;0.50;;
1999;SDS011;1001;48.87406500;9.59633600;2023-12-04T01:58:04;1.75;;;1.58;;
1999;SDS011;1001;48.87406500;9.59633600;2023-12-04T02:00:31;1.13;;;1.02;;
1999;SDS011;1001;48.87406500;9.59633600;2023-12-04T02:02:57;1.02;;;0.57;;
1999;SDS011;1001;48.87406500;9.59633600;2023-12-04T02:05:24;1.15;;;0.77;;
1999;SDS011;1001;48.87406500;9.59633600;2023-12-04T02:07:51;3.38;;;1.17;;
1999;SDS011;1001;48.87406500;9.59633600;2023-12-04T02:10:18;0.60;;;0.40;;
1999;SDS011;1001;48.87406500;9.59633600;2023-12-04T02:12:45;0.60;;;0.60;;
1999;SDS011;1001;48.87406500;9.59633600;2023-12-04T02:15:11;0.80;;;0.70;;
1999;SDS011;1001;48.87406500;9.59633600;2023-12-04T02:17:38;0.70;;;0.45;;
1999;SDS011;1001;48.87406500;9.59633600;2023-12-04T02:20:05;2.58;;;0.82;;
1999;SDS011;1001;48.87406500;9.59633600;2023-12-04T02:22:32;2.05;;;1.85;;
1999;SDS011;1001;48.87406500;9.59633600;2023-12-04T02:25:00;0.50;;;0.30;;
1999;SDS011;1001;48.87406500;9.59633600;2023-12-04T02:27:28;1.30;;;0.98;;
1999;SDS011;1001;48.87406500;9.59633600;2023-12-04T02:29:56;0.40;;;0.30;;
1999;SDS011;1001;48.87406500;9.59633600;2023-12-04T02:32:23;0.98;;;0.98;;
1999;SDS011;1001;48.87406500;9.59633600;2023-12-04T02:34:50;0.63;;;0.63;;
1999;SDS011;1001;48.87406500;9.59633600;2023-12-04T02:37:19;0.70;;;0.40;;
1999;SDS011;1001;48.87406500;9.59633600;2023-12-04T02:39:46;1.67;;;1.58;;
1999;SDS011;1001;48.87406500;9.59633600;2023-12-04T02:42:15;2.55;;;0.60;;
1999;SDS011;1001;48.87406500;9.59633600;2023-12-04T02:44:42;0.68;;;0.68;;
1999;SDS011;1001;48.87406500;9.59633600;2023-12-04T02:47:08;3.60;;;1.85;;
1999;SDS011;1001;48.87406500;9.59633600;2023-12-04T02:49:34;0.77;;;0.77;;
1999;SDS011;1001;48.87406500;9.59633600;2023-12-04T02:52:01;0.70;;;0.70;;
1999;SDS011;1001;48.87406500;9.59633600;2023-12-04T02:54:27;0.93;;;0.57;;
1999;SDS011;1001;48.87406500;9.59633600;2023-12-04T02:56:54;0.40;;;0.30;;
1999;SDS011;1001;48.87406500;9.59633600;2023-12-04T02:59:21;0.60;;;0.47;;
1999;SDS011;1001;48.87406500;9.59633600;2023-12-04T03:01:48;0.50;;;0.50;;
1999;SDS011;1001;48.87406500;9.59633600;2023-12-04T03:04:14;0.70;;;0.70;;
1999;SDS011;1001;48.87406500;9.59633600;2023-12-04T03:06:40;0.40;;;0.20;;
1999;SDS011;1001;48.87406500;9.59633600;2023-12-04T03:09:07;0.40;;;0.30;;
1999;SDS011;1001;48.87406500;9.59633600;2023-12-04T03:11:33;2.00;;;1.90;;
1999;SDS011;1001;48.87406500;9.59633600;2023-12-04T03:13:59;0.90;;;0.65;;
1999;SDS011;1001;48.87406500;9.59633600;2023-12-04T03:16:26;0.97;;;0.70;;
1999;SDS011;1001;48.87406500;9.59633600;2023-12-04T03:18:52;0.40;;;0.30;;
1999;SDS011;1001;48.87406500;9.59633600;2023-12-04T03:21:19;1.25;;;1.23;;
1999;SDS011;1001;48.87406500;9.59633600;2023-12-04T03:23:45;0.50;;;0.40;;
1999;SDS011;1001;48.87406500;9.59633600;2023-12-04T03:26:11;3.05;;;2.85;;
1999;SDS011;1001;48.87406500;9.59633600;2023-12-04T03:28:38;0.50;;;0.43;;
1999;SDS011;1001;48.87406500;9.59633600;2023-12-04T03:31:04;0.60;;;0.60;;
1999;SDS011;1001;48.87406500;9.59633600;2023-12-04T03:33:32;1.65;;;1.55;;
1999;SDS011;1001;48.87406500;9.59633600;2023-12-04T03:35:58;0.40;;;0.20;;
1999;SDS011;1001;48.87406500;9.59633600;2023-12-04T03:38:25;0.75;;;0.60;;
1999;SDS011;1001;48.87406500;9.59633600;2023-12-04T03:40:51;0.50;;;0.40;;
1999;SDS011;1001;48.87406500;9.59633600;2023-12-04T03:43:17;0.93;;;0.88;;
1999;SDS011;1001;48.87406500;9.59633600;2023-12-04T03:45:44;1.63;;;1.52;;
1999;SDS011;1001;48.87406500;9.59633600;2023-12-04T03:48:10;2.05;;;1.77;;
1999;SDS011;1001;48.87406500;9.59633600;2023-12-04T03:50:38;0.40;;;0.30;;
1999;SDS011;1001;48.87406500;9.59633600;2023-12-04T03:53:04;0.40;;;0.20;;
1999;SDS011;1001;48.87406500;9.59633600;2023-12-04T03:55:30;3.35;;;1.63;;
1999;SDS011;1001;48.87406500;9.59633600;2023-12-04T03:57:57;2.05;;;1.95;;
1999;SDS011;1001;48.87406500;9.59633600;2023-12-04T04:00:24;0.40;;;0.25;;
1999;SDS011;1001;48.87406500;9.59633600;2023-12-04T04:02:50;2.28;;;1.67;;
1999;SDS011;1001;48.87406500;9.59633600;2023-12-04T04:05:16;0.50;;;0.40;;
1999;SDS011;1001;48.87406500;9.59633600;2023-12-04T04:07:44;0.40;;;0.30;;
1999;SDS011;1001;48.87406500;9.59633600;2023-12-04T04:10:10;2.50;;;2.30;;
1999;SDS011;1001;48.87406500;9.59633600;2023-12-04T04:12:37;0.40;;;0.25;;
1999;SDS011;1001;48.87406500;9.59633600;2023-12-04T04:15:03;0.40;;;0.20;;
1999;SDS011;1001;48.87406500;9.59633600;2023-12-04T04:17:30;0.60;;;0.30;;
1999;SDS011;1001;48.87406500;9.59633600;2023-12-04T04:19:58;2.05;;;0.60;;
1999;SDS011;1001;48.87406500;9.59633600;2023-12-04T04:22:25;0.95;;;0.52;;
1999;SDS011;1001;48.87406500;9.59633600;2023-12-04T04:24:52;0.40;;;0.20;;
1999;SDS011;1001;48.87406500;9.59633600;2023-12-04T04:27:18;0.40;;;0.30;;
1999;SDS011;1001;48.87406500;9.59633600;2023-12-04T04:29:45;0.40;;;0.30;;
1999;SDS011;1001;48.87406500;9.59633600;2023-12-04T04:32:11;0.40;;;0.20;;
1999;SDS011;1001;48.87406500;9.59633600;2023-12-04T04:34:37;0.75;;;0.60;;
1999;SDS011;1001;48.87406500;9.59633600;2023-12-04T04:37:04;0.80;;;0.60;;
1999;SDS011;1001;48.87406500;9.59633600;2023-12-04T04:39:30;0.60;;;0.30;;
1999;SDS011;1001;48.87406500;9.59633600;2023-12-04T04:42:00;1.63;;;1.52;;
1999;SDS011;1001;48.87406500;9.59633600;2023-12-04T04:44:26;1.63;;;0.93;;
1999;SDS011;1001;48.87406500;9.59633600;2023-12-04T04:46:53;1.08;;;0.88;;
1999;SDS011;1001;48.87406500;9.59633600;2023-12-04T04:49:22;2.58;;;0.70;;
1999;SDS011;1001;48.87406500;9.59633600;2023-12-04T04:51:48;0.80;;;0.50;;
1999;SDS011;1001;48.87406500;9.59633600;2023-12-04T04:54:15;3.33;;;0.52;;
1999;SDS011;1001;48.87406500;9.59633600;2023-12-04T04:56:41;0.40;;;0.30;;
1999;SDS011;1001;48.87406500;9.59633600;2023-12-04T04:59:08;1.40;;;0.73;;
1999;SDS011;1001;48.87406500;9.59633600;2023-12-04T05:01:35;0.80;;;0.60;;
1999;SDS011;1001;48.87406500;9.59633600;2023-12-04T05:04:01;0.68;;;0.55;;
1999;SDS011;1001;48.87406500;9.59633600;2023-12-04T05:06:27;3.05;;;1.90;;
1999;SDS011;1001;48.87406500;9.59633600;2023-12-04T05:08:54;0.40;;;0.30;;
1999;SDS011;1001;48.87406500;9.59633600;2023-12-04T05:11:22;0.50;;;0.40;;
1999;SDS011;1001;48.87406500;9.59633600;2023-12-04T05:13:49;2.70;;;0.75;;
1999;SDS011;1001;48.87406500;9.59633600;2023-12-04T05:16:17;1.45;;;1.08;;
1999;SDS011;1001;48.87406500;9.59633600;2023-12-04T05:18:43;1.40;;;0.85;;
1999;SDS011;1001;48.87406500;9.59633600;2023-12-04T05:21:09;2.53;;;2.08;;
1999;SDS011;1001;48.87406500;9.59633600;2023-12-04T05:23:36;2.28;;;2.13;;
1999;SDS011;1001;48.87406500;9.59633600;2023-12-04T05:26:02;1.25;;;0.75;;
1999;SDS011;1001;48.87406500;9.59633600;2023-12-04T05:28:29;0.77;;;0.65;;
1999;SDS011;1001;48.87406500;9.59633600;2023-12-04T05:30:55;10.18;;;2.67;;
1999;SDS011;1001;48.87406500;9.59633600;2023-12-04T05:33:22;3.80;;;2.35;;
1999;SDS011;1001;48.87406500;9.59633600;2023-12-04T05:35:49;1.55;;;1.45;;
1999;SDS011;1001;48.87406500;9.59633600;2023-12-04T05:38:16;1.25;;;0.40;;
1999;SDS011;1001;48.87406500;9.59633600;2023-12-04T05:40:42;1.52;;;0.68;;
1999;SDS011;1001;48.87406500;9.59633600;2023-12-04T05:43:08;1.88;;;1.75;;
1999;SDS011;1001;48.87406500;9.59633600;2023-12-04T05:45:35;3.45;;;1.48;;
1999;SDS011;1001;48.87406500;9.59633600;2023-12-04T05:48:01;0.80;;;0.55;;
1999;SDS011;1001;48.87406500;9.59633600;2023-12-04T05:50:29;1.00;;;0.90;;
1999;SDS011;1001;48.87406500;9.59633600;2023-12-04T05:52:55;0.80;;;0.80;;
1999;SDS011;1001;48.87406500;9.59633600;2023-12-04T05:55:21;1.00;;;0.57;;
1999;SDS011;1001;48.87406500;9.59633600;2023-12-04T05:57:48;1.98;;;0.95;;
1999;SDS011;1001;48.87406500;9.59633600;2023-12-04T06:00:14;0.70;;;0.68;;
1999;SDS011;1001;48.87406500;9.59633600;2023-12-04T06:02:41;4.97;;;1.50;;
1999;SDS011;1001;48.87406500;9.59633600;2023-12-04T06:05:07;2.15;;;1.45;;
1999;SDS011;1001;48.87406500;9.59633600;2023-12-04T06:07:35;0.70;;;0.60;;
1999;SDS011;1001;48.87406500;9.59633600;2023-12-04T06:10:01;1.77;;;1.08;;
1999;SDS011;1001;48.87406500;9.59633600;2023-12-04T06:12:29;5.80;;;1.95;;
1999;SDS011;1001;48.87406500;9.59633600;2023-12-04T06:14:55;1.27;;;1.10;;
1999;SDS011;1001;48.87406500;9.59633600;2023-12-04T06:17:23;2.22;;;2.00;;
1999;SDS011;1001;48.87406500;9.59633600;2023-12-04T06:19:49;3.25;;;3.05;;
1999;SDS011;1001;48.87406500;9.59633600;2023-12-04T06:22:16;2.15;;;1.85;;
1999;SDS011;1001;48.87406500;9.59633600;2023-12-04T06:24:46;2.05;;;1.95;;
1999;SDS011;1001;48.87406500;9.59633600;2023-12-04T06:27:13;0.98;;;0.80;;
1999;SDS011;1001;48.87406500;9.59633600;2023-12-04T06:29:43;2.33;;;1.63;;
1999;SDS011;1001;48.87406500;9.59633600;2023-12-04T06:32:10;1.15;;;1.02;;
1999;SDS011;1001;48.87406500;9.59633600;2023-12-04T06:34:37;3.03;;;1.30;;
1999;SDS011;1001;48.87406500;9.59633600;2023-12-04T06:37:04;1.40;;;1.30;;
1999;SDS011;1001;48.87406500;9.59633600;2023-12-04T06:39:34;0.75;;;0.73;;
1999;SDS011;1001;48.87406500;9.59633600;2023-12-04T06:42:04;2.13;;;1.40;;
1999;SDS011;1001;48.87406500;9.59633600;2023-12-04T06:44:31;4.03;;;1.98;;
1999;SDS011;1001;48.87406500;9.59633600;2023-12-04T06:46:57;3.67;;;2.00;;
1999;SDS011;1001;48.87406500;9.59633600;2023-12-04T06:49:26;2.60;;;1.48;;
1999;SDS011;1001;48.87406500;9.59633600;2023-12-04T06:51:55;1.50;;;1.10;;
1999;SDS011;1001;48.87406500;9.59633600;2023-12-04T06:54:21;2.95;;;2.05;;
1999;SDS011;1001;48.87406500;9.59633600;2023-12-04T06:56:48;2.45;;;1.13;;
1999;SDS011;1001;48.87406500;9.59633600;2023-12-04T06:59:15;0.77;;;0.77;;
1999;SDS011;1001;48.87406500;9.59633600;2023-12-04T07:01:41;4.00;;;2.58;;
1999;SDS011;1001;48.87406500;9.59633600;2023-12-04T07:04:08;1.73;;;0.77;;
1999;SDS011;1001;48.87406500;9.59633600;2023-12-04T07:06:35;0.70;;;0.70;;
1999;SDS011;1001;48.87406500;9.59633600;2023-12-04T07:09:02;1.50;;;1.40;;
1999;SDS011;1001;48.87406500;9.59633600;2023-12-04T07:11:28;1.52;;;0.98;;
1999;SDS011;1001;48.87406500;9.59633600;2023-12-04T07:13:54;0.52;;;0.40;;
1999;SDS011;1001;48.87406500;9.59633600;2023-12-04T07:16:22;0.63;;;0.60;;
1999;SDS011;1001;48.87406500;9.59633600;2023-12-04T07:18:48;1.15;;;0.85;;
1999;SDS011;1001;48.87406500;9.59633600;2023-12-04T07:21:14;2.08;;;1.05;;
1999;SDS011;1001;48.87406500;9.59633600;2023-12-04T07:23:41;0.73;;;0.73;;
1999;SDS011;1001;48.87406500;9.59633600;2023-12-04T07:26:07;2.65;;;1.75;;
1999;SDS011;1001;48.87406500;9.59633600;2023-12-04T07:28:33;1.95;;;0.73;;
1999;SDS011;1001;48.87406500;9.59633600;2023-12-04T07:31:00;1.80;;;0.95;;
1999;SDS011;1001;48.87406500;9.59633600;2023-12-04T07:33:28;1.48;;;0.70;;
1999;SDS011;1001;48.87406500;9.59633600;2023-12-04T07:35:54;4.38;;;3.33;;
1999;SDS011;1001;48.87406500;9.59633600;2023-12-04T07:38:23;3.35;;;1.85;;
1999;SDS011;1001;48.87406500;9.59633600;2023-12-04T07:40:50;0.93;;;0.52;;
1999;SDS011;1001;48.87406500;9.59633600;2023-12-04T07:43:16;0.65;;;0.65;;
1999;SDS011;1001;48.87406500;9.59633600;2023-12-04T07:45:43;1.65;;;1.48;;
1999;SDS011;1001;48.87406500;9.59633600;2023-12-04T07:48:09;0.85;;;0.85;;
1999;SDS011;1001;48.87406500;9.59633600;2023-12-04T07:50:38;1.05;;;0.98;;
1999;SDS011;1001;48.87406500;9.59633600;2023-12-04T07:53:04;1.63;;;0.82;;
1999;SDS011;1001;48.87406500;9.59633600;2023-12-04T07:55:32;0.50;;;0.40;;
1999;SDS011;1001;48.87406500;9.59633600;2023-12-04T07:57:59;3.00;;;2.15;;
1999;SDS011;1001;48.87406500;9.59633600;2023-12-04T08:00:25;3.72;;;3.42;;
1999;SDS011;1001;48.87406500;9.59633600;2023-12-04T08:02:51;1.35;;;1.25;;
1999;SDS011;1001;48.87406500;9.59633600;2023-12-04T08:05:18;4.30;;;3.17;;
1999;SDS011;1001;48.87406500;9.59633600;2023-12-04T08:07:45;0.60;;;0.43;;
1999;SDS011;1001;48.87406500;9.59633600;2023-12-04T08:10:11;1.15;;;1.00;;
1999;SDS011;1001;48.87406500;9.59633600;2023-12-04T08:12:38;1.80;;;0.82;;
1999;SDS011;1001;48.87406500;9.59633600;2023-12-04T08:15:05;6.07;;;3.35;;
1999;SDS011;1001;48.87406500;9.59633600;2023-12-04T08:17:31;0.40;;;0.30;;
1999;SDS011;1001;48.87406500;9.59633600;2023-12-04T08:19:57;3.70;;;2.30;;
1999;SDS011;1001;48.87406500;9.59633600;2023-12-04T08:22:24;2.55;;;1.77;;
1999;SDS011;1001;48.87406500;9.59633600;2023-12-04T08:24:51;8.18;;;4.57;;
1999;SDS011;1001;48.87406500;9.59633600;2023-12-04T08:27:18;5.18;;;3.75;;
1999;SDS011;1001;48.87406500;9.59633600;2023-12-04T08:29:45;4.97;;;2.05;;
1999;SDS011;1001;48.87406500;9.59633600;2023-12-04T08:32:11;3.53;;;1.85;;
1999;SDS011;1001;48.87406500;9.59633600;2023-12-04T08:34:37;5.45;;;3.50;;
1999;SDS011;1001;48.87406500;9.59633600;2023-12-04T08:37:03;2.20;;;0.82;;
1999;SDS011;1001;48.87406500;9.59633600;2023-12-04T08:39:30;1.10;;;0.57;;
1999;SDS011;1001;48.87406500;9.59633600;2023-12-04T08:41:57;2.03;;;1.42;;
1999;SDS011;1001;48.87406500;9.59633600;2023-12-04T08:44:23;2.38;;;1.48;;
1999;SDS011;1001;48.87406500;9.59633600;2023-12-04T08:46:50;2.58;;;1.63;;
1999;SDS011;1001;48.87406500;9.59633600;2023-12-04T08:49:16;3.53;;;2.05;;
1999;SDS011;1001;48.87406500;9.59633600;2023-12-04T08:51:42;0.93;;;0.57;;
1999;SDS011;1001;48.87406500;9.59633600;2023-12-04T08:54:09;1.42;;;0.93;;
1999;SDS011;1001;48.87406500;9.59633600;2023-12-04T08:56:35;2.35;;;1.48;;
1999;SDS011;1001;48.87406500;9.59633600;2023-12-04T08:59:02;1.85;;;1.75;;
1999;SDS011;1001;48.87406500;9.59633600;2023-12-04T09:01:29;2.40;;;1.67;;
1999;SDS011;1001;48.87406500;9.59633600;2023-12-04T09:03:55;0.50;;;0.30;;
1999;SDS011;1001;48.87406500;9.59633600;2023-12-04T09:06:22;2.45;;;2.30;;
1999;SDS011;1001;48.87406500;9.59633600;2023-12-04T09:08:48;2.88;;;1.33;;
1999;SDS011;1001;48.87406500;9.59633600;2023-12-04T09:11:14;2.50;;;0.60;;
1999;SDS011;1001;48.87406500;9.59633600;2023-12-04T09:13:40;0.40;;;0.30;;
1999;SDS011;1001;48.87406500;9.59633600;2023-12-04T09:16:09;0.70;;;0.50;;
1999;SDS011;1001;48.87406500;9.59633600;2023-12-04T09:18:35;1.23;;;1.00;;
1999;SDS011;1001;48.87406500;9.59633600;2023-12-04T09:21:01;3.45;;;1.48;;
1999;SDS011;1001;48.87406500;9.59633600;2023-12-04T09:23:28;3.50;;;2.35;;
1999;SDS011;1001;48.87406500;9.59633600;2023-12-04T09:25:55;0.52;;;0.40;;
1999;SDS011;1001;48.87406500;9.59633600;2023-12-04T09:28:21;11.82;;;2.30;;
1999;SDS011;1001;48.87406500;9.59633600;2023-12-04T09:30:48;0.93;;;0.88;;
1999;SDS011;1001;48.87406500;9.59633600;2023-12-04T09:33:15;0.40;;;0.20;;
1999;SDS011;1001;48.87406500;9.59633600;2023-12-04T09:35:42;0.63;;;0.57;;
1999;SDS011;1001;48.87406500;9.59633600;2023-12-04T09:38:08;0.40;;;0.20;;
1999;SDS011;1001;48.87406500;9.59633600;2023-12-04T09:40:34;0.50;;;0.50;;
1999;SDS011;1001;48.87406500;9.59633600;2023-12-04T09:43:01;1.67;;;1.15;;
1999;SDS011;1001;48.87406500;9.59633600;2023-12-04T09:45:27;0.50;;;0.30;;
1999;SDS011;1001;48.87406500;9.59633600;2023-12-04T09:47:55;1.52;;;1.42;;
1999;SDS011;1001;48.87406500;9.59633600;2023-12-04T09:50:23;2.25;;;1.60;;
1999;SDS011;1001;48.87406500;9.59633600;2023-12-04T09:52:49;0.60;;;0.60;;
1999;SDS011;1001;48.87406500;9.59633600;2023-12-04T09:55:16;0.60;;;0.43;;
1999;SDS011;1001;48.87406500;9.59633600;2023-12-04T09:57:42;1.05;;;1.00;;
1999;SDS011;1001;48.87406500;9.59633600;2023-12-04T10:00:09;0.40;;;0.30;;
1999;SDS011;1001;48.87406500;9.59633600;2023-12-04T10:02:36;0.40;;;0.22;;
1999;SDS011;1001;48.87406500;9.59633600;2023-12-04T10:05:03;0.50;;;0.40;;
1999;SDS011;1001;48.87406500;9.59633600;2023-12-04T10:07:32;1.67;;;0.85;;
1999;SDS011;1001;48.87406500;9.59633600;2023-12-04T10:09:58;6.78;;;1.00;;
1999;SDS011;1001;48.87406500;9.59633600;2023-12-04T10:12:27;0.40;;;0.30;;
1999;SDS011;1001;48.87406500;9.59633600;2023-12-04T10:15:03;1.70;;;0.82;;
1999;SDS011;1001;48.87406500;9.59633600;2023-12-04T10:17:32;0.70;;;0.63;;
1999;SDS011;1001;48.87406500;9.59633600;2023-12-04T10:20:03;4.22;;;1.83;;
1999;SDS011;1001;48.87406500;9.59633600;2023-12-04T10:22:33;2.88;;;2.72;;
1999;SDS011;1001;48.87406500;9.59633600;2023-12-04T10:25:00;0.70;;;0.55;;
1999;SDS011;1001;48.87406500;9.59633600;2023-12-04T10:27:39;0.52;;;0.52;;
1999;SDS011;1001;48.87406500;9.59633600;2023-12-04T10:30:06;1.30;;;0.70;;
1999;SDS011;1001;48.87406500;9.59633600;2023-12-04T10:32:35;0.50;;;0.32;;
1999;SDS011;1001;48.87406500;9.59633600;2023-12-04T10:35:02;1.20;;;1.10;;
1999;SDS011;1001;48.87406500;9.59633600;2023-12-04T10:37:28;0.80;;;0.77;;
1999;SDS011;1001;48.87406500;9.59633600;2023-12-04T10:39:56;1.60;;;1.27;;
1999;SDS011;1001;48.87406500;9.59633600;2023-12-04T10:42:23;0.40;;;0.25;;
1999;SDS011;1001;48.87406500;9.59633600;2023-12-04T10:44:49;2.97;;;2.47;;
1999;SDS011;1001;48.87406500;9.59633600;2023-12-04T10:47:16;0.80;;;0.68;;
1999;SDS011;1001;48.87406500;9.59633600;2023-12-04T10:49:42;5.28;;;3.17;;
1999;SDS011;1001;48.87406500;9.59633600;2023-12-04T10:52:09;2.63;;;2.42;;
1999;SDS011;1001;48.87406500;9.59633600;2023-12-04T10:54:36;5.88;;;3.38;;
1999;SDS011;1001;48.87406500;9.59633600;2023-12-04T10:57:04;2.08;;;1.88;;
1999;SDS011;1001;48.87406500;9.59633600;2023-12-04T10:59:32;7.38;;;4.20;;
1999;SDS011;1001;48.87406500;9.59633600;2023-12-04T11:02:02;5.63;;;3.35;;
1999;SDS011;1001;48.87406500;9.59633600;2023-12-04T11:04:31;4.93;;;2.90;;
1999;SDS011;1001;48.87406500;9.59633600;2023-12-04T11:06:57;5.13;;;2.78;;
1999;SDS011;1001;48.87406500;9.59633600;2023-12-04T11:09:24;3.42;;;0.95;;
1999;SDS011;1001;48.87406500;9.59633600;2023-12-04T11:11:53;4.00;;;3.70;;
1999;SDS011;1001;48.87406500;9.59633600;2023-12-04T11:14:23;3.83;;;2.70;;
1999;SDS011;1001;48.87406500;9.59633600;2023-12-04T11:16:53;0.40;;;0.20;;
1999;SDS011;1001;48.87406500;9.59633600;2023-12-04T11:19:23;1.20;;;0.82;;
1999;SDS011;1001;48.87406500;9.59633600;2023-12-04T11:21:54;1.67;;;0.47;;
1999;SDS011;1001;48.87406500;9.59633600;2023-12-04T11:24:25;0.80;;;0.80;;
1999;SDS011;1001;48.87406500;9.59633600;2023-12-04T11:26:51;0.82;;;0.80;;
1999;SDS011;1001;48.87406500;9.59633600;2023-12-04T11:29:18;1.33;;;0.90;;
1999;SDS011;1001;48.87406500;9.59633600;2023-12-04T11:31:46;8.30;;;2.45;;
1999;SDS011;1001;48.87406500;9.59633600;2023-12-04T11:34:12;1.40;;;1.13;;
1999;SDS011;1001;48.87406500;9.59633600;2023-12-04T11:36:38;6.53;;;3.70;;
1999;SDS011;1001;48.87406500;9.59633600;2023-12-04T11:39:08;5.65;;;3.85;;
1999;SDS011;1001;48.87406500;9.59633600;2023-12-04T11:41:35;8.20;;;5.13;;
1999;SDS011;1001;48.87406500;9.59633600;2023-12-04T11:44:01;7.22;;;5.07;;
1999;SDS011;1001;48.87406500;9.59633600;2023-12-04T11:46:28;9.45;;;4.75;;
1999;SDS011;1001;48.87406500;9.59633600;2023-12-04T11:49:25;4.32;;;3.15;;
1999;SDS011;1001;48.87406500;9.59633600;2023-12-04T11:51:46;3.35;;;2.35;;
1999;SDS011;1001;48.87406500;9.59633600;2023-12-04T11:54:16;0.40;;;0.30;;
1999;SDS011;1001;48.87406500;9.59633600;2023-12-04T11:56:43;6.68;;;3.42;;
1999;SDS011;1001;48.87406500;9.59633600;2023-12-04T11:59:22;0.40;;;0.20;;
1999;SDS011;1001;48.87406500;9.59633600;2023-12-04T12:01:49;5.95;;;3.80;;
1999;SDS011;1001;48.87406500;9.59633600;2023-12-04T12:04:18;5.82;;;5.50;;
1999;SDS011;1001;48.87406500;9.59633600;2023-12-04T12:06:44;0.40;;;0.20;;
1999;SDS011;1001;48.87406500;9.59633600;2023-12-04T12:09:11;2.73;;;1.57;;
1999;SDS011;1001;48.87406500;9.59633600;2023-12-04T12:11:37;0.40;;;0.20;;
1999;SDS011;1001;48.87406500;9.59633600;2023-12-04T12:14:05;0.50;;;0.40;;
1999;SDS011;1001;48.87406500;9.59633600;2023-12-04T12:16:31;3.35;;;3.03;;
1999;SDS011;1001;48.87406500;9.59633600;2023-12-04T12:18:58;4.20;;;0.77;;
1999;SDS011;1001;48.87406500;9.59633600;2023-12-04T12:21:25;8.50;;;5.30;;
1999;SDS011;1001;48.87406500;9.59633600;2023-12-04T12:23:52;9.23;;;4.63;;
1999;SDS011;1001;48.87406500;9.59633600;2023-12-04T12:26:18;5.03;;;2.97;;
1999;SDS011;1001;48.87406500;9.59633600;2023-12-04T12:28:45;11.77;;;6.97;;
1999;SDS011;1001;48.87406500;9.59633600;2023-12-04T12:31:11;11.90;;;7.18;;
1999;SDS011;1001;48.87406500;9.59633600;2023-12-04T12:33:37;6.53;;;4.85;;
1999;SDS011;1001;48.87406500;9.59633600;2023-12-04T12:36:04;12.98;;;7.38;;
1999;SDS011;1001;48.87406500;9.59633600;2023-12-04T12:38:32;8.85;;;7.15;;
1999;SDS011;1001;48.87406500;9.59633600;2023-12-04T12:41:00;15.30;;;6.80;;
1999;SDS011;1001;48.87406500;9.59633600;2023-12-04T12:43:27;8.98;;;6.07;;
1999;SDS011;1001;48.87406500;9.59633600;2023-12-04T12:45:54;8.75;;;6.13;;
1999;SDS011;1001;48.87406500;9.59633600;2023-12-04T12:48:20;5.13;;;4.63;;
1999;SDS011;1001;48.87406500;9.59633600;2023-12-04T12:50:46;10.73;;;7.00;;
1999;SDS011;1001;48.87406500;9.59633600;2023-12-04T12:53:13;6.75;;;4.38;;
1999;SDS011;1001;48.87406500;9.59633600;2023-12-04T12:55:41;8.25;;;5.80;;
1999;SDS011;1001;48.87406500;9.59633600;2023-12-04T12:58:08;10.82;;;5.95;;
1999;SDS011;1001;48.87406500;9.59633600;2023-12-04T13:00:34;14.80;;;5.90;;
1999;SDS011;1001;48.87406500;9.59633600;2023-12-04T13:03:01;10.82;;;7.25;;
1999;SDS011;1001;48.87406500;9.59633600;2023-12-04T13:05:27;5.95;;;5.40;;
1999;SDS011;1001;48.87406500;9.59633600;2023-12-04T13:07:54;1.65;;;1.27;;
1999;SDS011;1001;48.87406500;9.59633600;2023-12-04T13:10:20;6.85;;;5.10;;